createdAt,value
2019-05-29T00:00:32.260Z,101165.61
2019-05-29T00:05:36.014Z,101175.45
2019-05-29T00:10:39.633Z,101184.31
2019-05-29T00:15:43.386Z,101192.03
2019-05-29T00:20:47.096Z,101195.84
2019-05-29T00:25:50.823Z,101208.16
2019-05-29T00:30:54.681Z,101208.72
2019-05-29T00:35:58.394Z,101218.39
2019-05-29T00:41:02.089Z,101220.10
2019-05-29T00:46:07.238Z,101219.88
2019-05-29T00:51:11.102Z,101229.87
2019-05-29T00:56:14.904Z,101235.58
2019-05-29T01:01:20.093Z,101230.23
2019-05-29T01:06:23.888Z,101239.81
2019-05-29T01:11:27.580Z,101241.25
2019-05-29T01:16:31.406Z,101245.62
2019-05-29T01:21:36.509Z,101256.48
2019-05-29T01:26:40.187Z,101249.33
2019-05-29T01:31:44.061Z,101260.09
2019-05-29T01:36:47.725Z,101269.51
2019-05-29T01:41:51.328Z,101273.19
2019-05-29T01:46:55.127Z,101276.26
2019-05-29T01:51:58.840Z,101281.97
2019-05-29T01:57:02.538Z,101282.38
2019-05-29T02:02:06.738Z,101294.33
2019-05-29T02:07:10.439Z,101297.32
2019-05-29T02:12:14.305Z,101306.03
2019-05-29T02:17:19.600Z,101304.09
2019-05-29T02:22:23.467Z,101308.72
2019-05-29T02:27:27.728Z,101300.30
2019-05-29T02:32:32.333Z,101308.56
2019-05-29T02:37:36.166Z,101308.56
2019-05-29T02:42:39.892Z,101313.09
2019-05-29T02:47:43.910Z,101323.11
2019-05-29T02:52:47.627Z,101323.66
2019-05-29T02:57:51.356Z,101324.58
2019-05-29T03:02:55.160Z,101325.28
2019-05-29T03:07:59.001Z,101330.92
2019-05-29T03:13:03.029Z,101337.78
2019-05-29T03:18:06.959Z,101341.31
2019-05-29T03:23:10.575Z,101347.06
2019-05-29T03:28:14.292Z,101346.02
2019-05-29T03:33:18.238Z,101357.00
2019-05-29T03:38:21.838Z,101359.13
2019-05-29T03:43:26.140Z,101366.25
2019-05-29T03:48:32.209Z,101371.69
2019-05-29T03:53:37.953Z,101376.30
2019-05-29T03:58:41.122Z,101375.27
2019-05-29T04:03:44.894Z,101379.82
2019-05-29T04:08:48.710Z,101390.13
2019-05-29T04:13:52.325Z,101390.58
2019-05-29T04:18:57.651Z,101399.13
2019-05-29T04:24:03.978Z,101400.16
2019-05-29T04:29:07.524Z,101407.95
2019-05-29T04:34:11.462Z,101415.75
2019-05-29T04:39:15.168Z,101418.15
2019-05-29T04:44:18.914Z,101431.88
2019-05-29T04:49:22.851Z,101426.19
2019-05-29T04:54:26.637Z,101437.48
2019-05-29T04:59:30.878Z,101436.08
2019-05-29T05:04:35.207Z,101442.69
2019-05-29T05:09:39.606Z,101444.63
2019-05-29T05:14:43.487Z,101459.02
2019-05-29T05:19:47.513Z,101470.55
2019-05-29T05:24:51.251Z,101472.77
2019-05-29T05:29:54.954Z,101478.17
2019-05-29T05:34:58.757Z,101475.02
2019-05-29T05:40:02.317Z,101469.90
2019-05-29T05:45:08.909Z,101483.03
2019-05-29T05:50:13.098Z,101489.45
2019-05-29T05:55:16.994Z,101490.84
2019-05-29T06:00:33.976Z,101495.76
2019-05-29T06:05:38.250Z,101503.05
2019-05-29T06:10:42.428Z,101505.47
2019-05-29T06:15:46.262Z,101505.48
2019-05-29T06:20:50.190Z,101510.41
2019-05-29T06:25:53.911Z,101517.14
2019-05-29T06:30:57.526Z,101521.00
2019-05-29T06:36:01.253Z,101532.25
2019-05-29T06:41:05.306Z,101539.31
2019-05-29T06:46:08.996Z,101540.66
2019-05-29T06:51:12.826Z,101540.95
2019-05-29T06:56:17.114Z,101540.84
2019-05-29T07:01:21.202Z,101549.20
2019-05-29T07:06:25.007Z,101555.12
2019-05-29T07:11:28.727Z,101558.16
2019-05-29T07:16:43.795Z,101558.16
2019-05-29T07:21:38.818Z,101570.58
2019-05-29T07:26:43.437Z,101565.08
2019-05-29T07:31:47.404Z,101566.67
2019-05-29T07:36:51.114Z,101573.44
2019-05-29T07:41:54.945Z,101578.53
2019-05-29T07:46:58.906Z,101573.66
2019-05-29T07:52:02.512Z,101577.30
2019-05-29T07:57:06.314Z,101587.52
2019-05-29T08:02:10.036Z,101587.33
2019-05-29T08:07:13.653Z,101579.60
2019-05-29T08:12:17.494Z,101585.66
2019-05-29T08:17:21.197Z,101581.38
2019-05-29T08:22:34.365Z,101594.20
2019-05-29T08:27:30.376Z,101588.38
2019-05-29T08:32:34.123Z,101590.67
2019-05-29T08:37:37.928Z,101593.98
2019-05-29T08:42:43.182Z,101590.67
2019-05-29T08:47:47.749Z,101583.73
2019-05-29T08:52:52.321Z,101585.52
2019-05-29T08:57:56.697Z,101581.46
2019-05-29T09:03:00.523Z,101577.93
2019-05-29T09:08:04.833Z,101583.77
2019-05-29T09:13:08.472Z,101586.81
2019-05-29T09:18:12.990Z,101589.02
2019-05-29T09:23:16.956Z,101586.89
2019-05-29T09:28:20.863Z,101583.91
2019-05-29T09:33:24.893Z,101585.44
2019-05-29T09:38:28.612Z,101589.12
2019-05-29T09:43:32.332Z,101592.87
2019-05-29T09:48:48.822Z,101595.17
2019-05-29T09:53:41.325Z,101590.08
2019-05-29T10:01:24.051Z,101590.48
2019-05-29T10:06:23.374Z,101590.81
2019-05-29T10:11:26.992Z,101593.56
2019-05-29T10:16:30.721Z,101594.62
2019-05-29T10:21:40.734Z,101600.00
2019-05-29T10:26:40.168Z,101599.56
2019-05-29T10:31:46.838Z,101596.33
2019-05-29T10:36:51.911Z,101604.36
2019-05-29T10:41:54.957Z,101592.65
2019-05-29T10:46:58.674Z,101596.89
2019-05-29T10:52:14.507Z,101590.00
2019-05-29T10:57:07.707Z,101589.22
2019-05-29T11:02:11.391Z,101591.72
2019-05-29T11:07:15.202Z,101586.06
2019-05-29T11:12:18.992Z,101587.55
2019-05-29T11:17:22.737Z,101590.18
2019-05-29T11:22:27.965Z,101590.48
2019-05-29T11:27:31.726Z,101588.29
2019-05-29T11:32:35.445Z,101589.66
2019-05-29T11:37:39.362Z,101593.25
2019-05-29T11:42:43.006Z,101584.18
2019-05-29T11:47:46.917Z,101590.14
2019-05-29T11:52:52.358Z,101589.35
2019-05-29T11:57:56.004Z,101587.32
2019-05-29T12:02:59.724Z,101580.23
2019-05-29T12:08:03.534Z,101582.05
2019-05-29T12:13:07.119Z,101580.23
2019-05-29T12:18:23.194Z,101579.30
2019-05-29T12:23:25.562Z,101588.25
2019-05-29T12:28:22.283Z,101581.87
2019-05-29T12:33:26.040Z,101575.73
2019-05-29T12:38:29.696Z,101575.54
2019-05-29T12:43:33.467Z,101576.88
2019-05-29T12:48:37.598Z,101566.38
2019-05-29T12:53:41.302Z,101565.14
2019-05-29T12:58:45.003Z,101562.80
2019-05-29T13:03:48.556Z,101560.17
2019-05-29T13:08:52.223Z,101554.68
2019-05-29T13:13:56.288Z,101559.96
2019-05-29T13:19:01.037Z,101558.36
2019-05-29T13:24:10.877Z,101559.77
2019-05-29T13:29:10.842Z,101547.27
2019-05-29T13:34:14.323Z,101543.96
2019-05-29T13:39:18.098Z,101543.66
2019-05-29T13:44:21.803Z,101541.33
2019-05-29T13:49:25.526Z,101539.06
2019-05-29T13:54:28.999Z,101531.59
2019-05-29T13:59:32.569Z,101523.39
2019-05-29T14:04:36.276Z,101520.71
2019-05-29T14:09:39.757Z,101525.20
2019-05-29T14:14:43.526Z,101531.38
2019-05-29T14:19:47.235Z,101522.09
2019-05-29T14:24:51.061Z,101520.00
2019-05-29T14:29:54.699Z,101508.81
2019-05-29T14:34:58.372Z,101496.78
2019-05-29T14:40:02.027Z,101496.48
2019-05-29T14:45:08.253Z,101507.66
2019-05-29T14:50:13.336Z,101508.66
2019-05-29T14:55:18.636Z,101495.11
2019-05-29T15:00:25.492Z,101493.77
2019-05-29T15:05:27.645Z,101492.33
2019-05-29T15:10:32.820Z,101489.75
2019-05-29T15:15:36.348Z,101489.75
2019-05-29T15:20:40.071Z,101491.70
2019-05-29T15:25:43.719Z,101487.14
2019-05-29T15:34:29.222Z,101483.12
2019-05-29T15:39:32.849Z,101482.47
2019-05-29T15:44:36.407Z,101483.55
2019-05-29T15:49:40.173Z,101480.08
2019-05-29T15:54:43.793Z,101485.70
2019-05-29T15:59:47.343Z,101480.50
2019-05-29T16:04:51.038Z,101479.08
2019-05-29T16:09:55.231Z,101480.91
2019-05-29T16:14:58.991Z,101480.69
2019-05-29T16:20:02.777Z,101484.92
2019-05-29T16:25:07.728Z,101472.77
2019-05-29T16:30:13.456Z,101474.08
2019-05-29T16:35:19.542Z,101476.05
2019-05-29T16:40:24.036Z,101476.05
2019-05-29T16:45:27.669Z,101480.27
2019-05-29T16:50:31.375Z,101477.81
2019-05-29T16:55:34.949Z,101476.25
2019-05-29T17:00:38.613Z,101477.02
2019-05-29T17:05:42.430Z,101487.48
2019-05-29T17:10:46.151Z,101475.92
2019-05-29T17:15:49.857Z,101482.95
2019-05-29T17:20:53.550Z,101479.14
2019-05-29T17:26:10.148Z,101483.23
2019-05-29T17:31:02.658Z,101488.25
2019-05-29T17:36:06.295Z,101486.61
2019-05-29T17:41:10.115Z,101481.19
2019-05-29T17:46:13.847Z,101494.27
2019-05-29T17:51:17.665Z,101488.06
2019-05-29T17:56:29.634Z,101480.48
2019-05-29T18:01:30.534Z,101483.94
2019-05-29T18:06:32.260Z,101480.38
2019-05-29T18:11:36.134Z,101488.06
2019-05-29T18:16:39.805Z,101493.59
2019-05-29T18:21:43.681Z,101491.70
2019-05-29T18:26:47.624Z,101505.33
2019-05-29T18:31:51.298Z,101512.88
2019-05-29T18:36:55.044Z,101506.82
2019-05-29T18:41:58.706Z,101515.55
2019-05-29T18:47:02.389Z,101510.83
2019-05-29T18:52:06.202Z,101503.66
2019-05-29T18:57:15.611Z,101505.11
2019-05-29T19:02:15.461Z,101505.19
2019-05-29T19:07:19.313Z,101500.20
2019-05-29T19:12:23.710Z,101508.97
2019-05-29T19:17:28.015Z,101507.12
2019-05-29T19:22:32.676Z,101511.09
2019-05-29T19:27:41.595Z,101518.63
2019-05-29T19:32:42.024Z,101528.47
2019-05-29T19:37:45.571Z,101520.52
2019-05-29T19:42:49.304Z,101527.13
2019-05-29T19:47:53.070Z,101525.72
2019-05-29T19:52:56.792Z,101532.48
2019-05-29T19:58:00.443Z,101534.67
2019-05-29T20:03:04.845Z,101538.31
2019-05-29T20:08:08.873Z,101538.20
2019-05-29T20:13:12.583Z,101549.30
2019-05-29T20:18:16.317Z,101553.02
2019-05-29T20:23:20.754Z,101565.91
2019-05-29T20:28:24.670Z,101564.34
2019-05-29T20:33:28.395Z,101566.39
2019-05-29T20:38:33.116Z,101565.67
2019-05-29T20:43:37.592Z,101567.52
2019-05-29T20:48:41.316Z,101569.64
2019-05-29T20:53:44.786Z,101566.25
2019-05-29T20:58:48.484Z,101566.23
2019-05-29T21:03:52.219Z,101571.41
2019-05-29T21:08:56.004Z,101570.84
2019-05-29T21:13:59.662Z,101569.84
2019-05-29T21:19:03.623Z,101569.73
2019-05-29T21:24:07.333Z,101576.83
2019-05-29T21:29:10.910Z,101586.42
2019-05-29T21:34:14.552Z,101582.11
2019-05-29T21:39:18.194Z,101584.86
2019-05-29T21:44:21.922Z,101582.80
2019-05-29T21:49:25.474Z,101583.11
2019-05-29T21:54:28.948Z,101579.66
2019-05-29T21:59:32.569Z,101584.70
2019-05-29T22:04:36.268Z,101589.13
2019-05-29T22:09:40.023Z,101588.23
2019-05-29T22:14:43.845Z,101586.66
2019-05-29T22:19:47.761Z,101588.41
2019-05-29T22:24:51.478Z,101595.95
2019-05-29T22:29:55.363Z,101590.67
2019-05-29T22:34:59.605Z,101583.98
2019-05-29T22:40:05.200Z,101580.45
2019-05-29T22:45:09.325Z,101589.44
2019-05-29T22:50:13.319Z,101584.47
2019-05-29T22:55:17.059Z,101576.37
2019-05-29T23:00:21.826Z,101588.48
2019-05-29T23:05:25.545Z,101580.94
2019-05-29T23:10:29.405Z,101580.63
2019-05-29T23:15:33.090Z,101576.63
2019-05-29T23:20:36.702Z,101573.47
2019-05-29T23:25:40.254Z,101569.83
2019-05-29T23:30:44.181Z,101577.08
2019-05-29T23:35:47.876Z,101583.61
2019-05-29T23:40:51.600Z,101576.14
2019-05-29T23:45:55.523Z,101571.91
2019-05-29T23:50:59.583Z,101576.47
2019-05-29T23:56:04.011Z,101575.13
